createdAt,value
2022-09-13T00:04:54.878Z,4.03
2022-09-13T00:10:17.534Z,4.00
2022-09-13T00:15:48.855Z,4.10
2022-09-13T00:21:14.119Z,5.47
2022-09-13T00:26:36.221Z,4.87
2022-09-13T00:31:58.412Z,3.80
2022-09-13T00:37:20.590Z,6.20
2022-09-13T00:42:42.906Z,6.73
2022-09-13T00:48:08.387Z,5.27
2022-09-13T00:53:34.044Z,3.63
2022-09-13T00:59:05.323Z,3.83
2022-09-13T01:04:30.211Z,3.90
2022-09-13T01:09:53.402Z,3.80
2022-09-13T01:15:16.029Z,4.07
2022-09-13T01:21:12.760Z,3.70
2022-09-13T01:26:56.474Z,3.77
2022-09-13T01:32:49.642Z,4.23
2022-09-13T01:38:31.646Z,5.87
2022-09-13T01:44:05.275Z,4.03
2022-09-13T01:49:58.544Z,4.20
2022-09-13T01:55:45.879Z,3.80
2022-09-13T02:01:11.095Z,4.40
2022-09-13T02:06:38.890Z,4.40
2022-09-13T02:12:07.615Z,5.53
2022-09-13T02:17:36.216Z,7.73
2022-09-13T02:23:05.267Z,4.10
2022-09-13T02:28:35.431Z,3.87
2022-09-13T02:34:03.537Z,3.80
2022-09-13T02:39:29.967Z,3.40
2022-09-13T02:44:54.503Z,4.07
2022-09-13T02:50:35.341Z,5.03
2022-09-13T02:56:09.614Z,6.53
2022-09-13T03:01:34.117Z,4.07
2022-09-13T03:06:56.651Z,4.47
2022-09-13T03:12:41.216Z,4.67
2022-09-13T03:18:38.986Z,4.40
2022-09-13T03:24:19.049Z,5.97
2022-09-13T03:29:55.747Z,5.07
2022-09-13T03:35:36.493Z,4.27
2022-09-13T03:41:32.695Z,4.90
2022-09-13T03:46:58.945Z,5.70
2022-09-13T03:52:22.153Z,4.23
2022-09-13T03:57:44.879Z,6.43
2022-09-13T04:03:08.202Z,4.90
2022-09-13T04:08:31.632Z,6.73
2022-09-13T04:13:54.001Z,6.53
2022-09-13T04:19:17.052Z,4.60
2022-09-13T04:24:40.139Z,4.53
2022-09-13T04:30:02.966Z,6.93
2022-09-13T04:35:25.882Z,7.27
2022-09-13T04:40:53.644Z,4.87
2022-09-13T04:46:16.720Z,10.70
2022-09-13T04:51:39.435Z,5.23
2022-09-13T04:57:02.558Z,7.10
2022-09-13T05:02:24.935Z,5.53
2022-09-13T05:07:51.062Z,5.63
2022-09-13T05:13:13.107Z,8.13
2022-09-13T05:18:39.092Z,5.50
2022-09-13T05:24:04.696Z,6.27
2022-09-13T05:29:27.164Z,5.53
2022-09-13T05:34:49.653Z,6.27
2022-09-13T05:40:12.646Z,5.63
2022-09-13T05:45:35.259Z,5.40
2022-09-13T05:51:04.046Z,8.30
2022-09-13T05:56:28.890Z,7.47
2022-09-13T06:01:51.592Z,9.17
2022-09-13T06:07:14.221Z,6.67
2022-09-13T06:12:36.534Z,6.47
2022-09-13T06:17:58.694Z,7.60
2022-09-13T06:23:21.067Z,9.47
2022-09-13T06:28:43.651Z,7.37
2022-09-13T06:34:07.332Z,6.67
2022-09-13T06:39:32.240Z,8.10
2022-09-13T06:44:54.827Z,7.00
2022-09-13T06:50:18.286Z,7.93
2022-09-13T06:55:40.395Z,7.20
2022-09-13T07:01:24.955Z,11.50
2022-09-13T07:06:49.382Z,9.00
2022-09-13T07:12:12.019Z,8.37
2022-09-13T07:17:34.351Z,10.97
2022-09-13T07:22:56.693Z,8.17
2022-09-13T07:28:22.242Z,9.90
2022-09-13T07:33:45.452Z,10.60
2022-09-13T07:39:12.102Z,11.50
2022-09-13T07:44:36.937Z,12.47
2022-09-13T07:49:59.472Z,12.03
2022-09-13T07:55:22.958Z,11.20
2022-09-13T08:00:45.756Z,11.17
2022-09-13T08:06:09.049Z,10.13
2022-09-13T08:11:39.946Z,12.60
2022-09-13T08:17:02.498Z,13.67
2022-09-13T08:22:24.744Z,10.60
2022-09-13T08:27:47.129Z,11.23
2022-09-13T08:33:11.398Z,14.87
2022-09-13T08:38:33.901Z,12.60
2022-09-13T08:44:33.583Z,13.40
2022-09-13T08:50:07.003Z,13.90
2022-09-13T08:55:46.338Z,15.20
2022-09-13T09:01:29.303Z,10.93
2022-09-13T09:07:02.664Z,14.23
2022-09-13T09:12:50.104Z,11.37
2022-09-13T09:18:19.331Z,12.47
2022-09-13T09:23:46.171Z,12.17
2022-09-13T09:29:25.788Z,12.37
2022-09-13T09:35:11.148Z,14.00
2022-09-13T09:40:36.466Z,10.60
2022-09-13T09:46:03.115Z,10.23
2022-09-13T09:51:28.394Z,10.27
2022-09-13T09:56:54.529Z,12.45
2022-09-13T10:02:20.652Z,11.48
2022-09-13T10:07:43.853Z,11.88
2022-09-13T10:13:13.254Z,10.55
2022-09-13T10:18:45.408Z,9.07
2022-09-13T10:24:21.522Z,9.40
2022-09-13T10:29:52.276Z,10.20
2022-09-13T10:35:19.356Z,9.80
2022-09-13T10:40:48.673Z,9.35
2022-09-13T10:46:21.947Z,12.43
2022-09-13T10:51:44.499Z,8.73
2022-09-13T10:57:37.177Z,11.30
2022-09-13T11:03:08.307Z,9.15
2022-09-13T11:08:59.182Z,9.55
2022-09-13T11:14:30.238Z,8.82
2022-09-13T11:19:57.409Z,8.32
2022-09-13T11:25:47.909Z,8.25
2022-09-13T11:31:15.841Z,7.53
2022-09-13T11:36:42.959Z,10.57
2022-09-13T11:42:31.267Z,8.57
2022-09-13T11:48:05.422Z,9.40
2022-09-13T11:54:04.308Z,10.38
2022-09-13T11:59:44.253Z,11.73
2022-09-13T12:05:23.494Z,10.60
2022-09-13T12:10:53.091Z,10.27
2022-09-13T12:16:23.226Z,9.18
2022-09-13T12:21:48.654Z,9.10
2022-09-13T12:27:45.609Z,9.23
2022-09-13T12:33:08.212Z,9.43
2022-09-13T12:39:00.289Z,8.65
2022-09-13T12:44:42.753Z,8.55
2022-09-13T12:50:48.404Z,11.25
2022-09-13T12:56:13.937Z,12.63
2022-09-13T13:01:36.604Z,12.48
2022-09-13T13:07:03.486Z,14.38
2022-09-13T13:12:30.900Z,13.52
2022-09-13T13:17:57.480Z,13.00
2022-09-13T13:23:40.037Z,17.52
2022-09-13T13:29:03.794Z,15.55
2022-09-13T13:34:29.758Z,16.83
2022-09-13T13:40:23.088Z,18.05
2022-09-13T13:46:24.709Z,17.35
2022-09-13T13:52:17.549Z,15.00
2022-09-13T13:58:02.291Z,18.17
2022-09-13T14:03:39.628Z,12.85
2022-09-13T14:09:08.726Z,15.48
2022-09-13T14:14:49.397Z,15.68
2022-09-13T14:20:16.605Z,15.15
2022-09-13T14:25:39.527Z,15.52
2022-09-13T14:31:02.743Z,15.43
2022-09-13T14:36:27.256Z,15.85
2022-09-13T14:41:59.476Z,20.10
2022-09-13T14:47:36.578Z,13.88
2022-09-13T14:53:06.861Z,10.95
2022-09-13T14:58:48.128Z,15.07
2022-09-13T15:04:11.040Z,10.68
2022-09-13T15:09:34.219Z,10.73
2022-09-13T15:15:42.230Z,9.88
2022-09-13T15:21:06.482Z,7.72
2022-09-13T15:26:29.022Z,8.93
2022-09-13T15:31:59.099Z,8.70
2022-09-13T15:37:30.846Z,8.48
2022-09-13T15:42:53.152Z,10.02
2022-09-13T15:48:36.103Z,10.35
2022-09-13T15:53:58.972Z,6.50
2022-09-13T15:59:22.445Z,4.25
2022-09-13T16:04:44.984Z,6.97
2022-09-13T16:10:16.751Z,8.50
2022-09-13T16:15:39.082Z,10.93
2022-09-13T16:21:01.248Z,17.30
2022-09-13T16:26:23.703Z,14.48
2022-09-13T16:31:45.931Z,6.90
2022-09-13T16:37:08.605Z,7.35
2022-09-13T16:42:31.566Z,5.95
2022-09-13T16:47:53.993Z,7.70
2022-09-13T16:53:16.508Z,7.38
2022-09-13T16:58:39.546Z,7.32
2022-09-13T17:04:03.583Z,6.85
2022-09-13T17:09:27.635Z,8.05
2022-09-13T17:14:50.791Z,6.20
2022-09-13T17:20:13.437Z,7.47
2022-09-13T17:25:36.042Z,7.18
2022-09-13T17:31:01.801Z,6.00
2022-09-13T17:36:24.882Z,5.97
2022-09-13T17:41:48.722Z,7.15
2022-09-13T17:47:11.056Z,7.63
2022-09-13T17:52:35.037Z,6.72
2022-09-13T17:57:57.782Z,12.20
2022-09-13T18:03:20.399Z,8.07
2022-09-13T18:08:43.903Z,10.48
2022-09-13T18:14:07.830Z,10.05
2022-09-13T18:19:45.742Z,7.10
2022-09-13T18:25:08.892Z,9.70
2022-09-13T18:30:31.294Z,10.05
2022-09-13T18:36:00.319Z,10.48
2022-09-13T18:41:30.481Z,7.22
2022-09-13T18:46:54.268Z,11.23
2022-09-13T18:52:16.791Z,7.50
2022-09-13T18:57:38.925Z,7.00
2022-09-13T19:03:12.370Z,7.72
2022-09-13T19:08:35.248Z,9.15
2022-09-13T19:13:57.828Z,8.82
2022-09-13T19:19:20.662Z,8.48
2022-09-13T19:24:44.497Z,7.70
2022-09-13T19:30:12.183Z,7.30
2022-09-13T19:35:36.337Z,9.10
2022-09-13T19:41:00.289Z,8.00
2022-09-13T19:46:28.091Z,6.00
2022-09-13T19:51:55.503Z,9.43
2022-09-13T19:57:19.199Z,9.57
2022-09-13T20:02:55.297Z,6.67
2022-09-13T20:08:22.709Z,7.57
2022-09-13T20:13:45.739Z,7.33
2022-09-13T20:19:29.691Z,5.37
2022-09-13T20:24:51.270Z,5.20
2022-09-13T20:30:13.791Z,9.70
2022-09-13T20:35:36.983Z,6.07
2022-09-13T20:41:08.219Z,8.67
2022-09-13T20:46:31.840Z,6.87
2022-09-13T20:51:54.707Z,6.03
2022-09-13T20:57:17.070Z,6.57
2022-09-13T21:02:39.478Z,5.77
2022-09-13T21:08:21.691Z,6.53
2022-09-13T21:13:45.181Z,6.40
2022-09-13T21:19:08.449Z,7.60
2022-09-13T21:24:31.587Z,9.70
2022-09-13T21:29:53.991Z,7.40
2022-09-13T21:35:16.558Z,6.57
2022-09-13T21:40:39.014Z,8.33
2022-09-13T21:46:04.593Z,8.03
2022-09-13T21:51:49.829Z,8.13
2022-09-13T21:57:12.167Z,6.33
2022-09-13T22:02:34.670Z,7.53
2022-09-13T22:07:56.775Z,9.00
2022-09-13T22:13:19.421Z,5.63
2022-09-13T22:18:41.783Z,7.70
2022-09-13T22:24:05.819Z,3.63
2022-09-13T22:29:28.783Z,7.20
2022-09-13T22:34:51.394Z,6.00
2022-09-13T22:40:14.270Z,4.30
2022-09-13T22:45:36.777Z,4.17
2022-09-13T22:50:59.256Z,4.67
2022-09-13T22:56:27.522Z,5.70
2022-09-13T23:01:50.655Z,8.80
2022-09-13T23:07:12.867Z,5.57
2022-09-13T23:12:35.177Z,3.53
2022-09-13T23:17:58.542Z,7.60
2022-09-13T23:23:20.834Z,4.53
2022-09-13T23:28:44.035Z,4.40
2022-09-13T23:34:09.627Z,4.33
2022-09-13T23:39:31.898Z,2.30
2022-09-13T23:44:54.440Z,2.10
2022-09-13T23:50:16.787Z,4.80
2022-09-13T23:55:39.151Z,3.93
